createdAt,value
2019-04-29T00:02:30.885Z,74.14
2019-04-29T00:07:34.255Z,75.15
2019-04-29T00:12:37.638Z,73.65
2019-04-29T00:17:42.650Z,74.08
2019-04-29T00:22:46.011Z,74.75
2019-04-29T00:27:49.422Z,74.98
2019-04-29T00:32:52.885Z,76.84
2019-04-29T00:38:03.674Z,76.54
2019-04-29T00:43:08.850Z,75.61
2019-04-29T00:48:12.232Z,77.29
2019-04-29T00:53:15.576Z,77.20
2019-04-29T00:58:18.937Z,76.45
2019-04-29T01:03:22.464Z,76.77
2019-04-29T01:08:26.251Z,76.69
2019-04-29T01:13:29.725Z,76.85
2019-04-29T01:18:33.195Z,76.91
2019-04-29T01:23:36.563Z,77.01
2019-04-29T01:28:41.513Z,76.79
2019-04-29T01:33:45.809Z,76.84
2019-04-29T01:38:50.479Z,76.71
2019-04-29T01:44:00.782Z,76.68
2019-04-29T01:49:04.273Z,76.30
2019-04-29T01:54:07.746Z,76.20
2019-04-29T01:59:11.106Z,76.58
2019-04-29T02:04:14.486Z,76.53
2019-04-29T02:09:19.606Z,76.49
2019-04-29T02:14:22.962Z,77.01
2019-04-29T02:19:26.326Z,76.08
2019-04-29T02:24:29.725Z,76.51
2019-04-29T02:29:33.085Z,76.31
2019-04-29T02:34:36.549Z,76.30
2019-04-29T02:39:43.968Z,76.26
2019-04-29T02:44:47.517Z,76.39
2019-04-29T02:49:50.851Z,76.64
2019-04-29T02:54:55.994Z,76.34
2019-04-29T03:00:06.890Z,76.01
2019-04-29T03:05:11.875Z,76.17
2019-04-29T03:10:15.489Z,76.44
2019-04-29T03:15:27.587Z,76.62
2019-04-29T03:20:32.700Z,76.36
2019-04-29T03:25:36.051Z,76.71
2019-04-29T03:30:39.404Z,77.07
2019-04-29T03:35:42.868Z,76.52
2019-04-29T03:40:46.242Z,76.82
2019-04-29T03:45:49.747Z,77.52
2019-04-29T03:50:53.146Z,76.93
2019-04-29T03:55:57.034Z,76.55
2019-04-29T04:01:02.195Z,76.05
2019-04-29T04:06:07.191Z,75.72
2019-04-29T04:11:10.554Z,76.28
2019-04-29T04:16:15.562Z,76.06
2019-04-29T04:21:18.898Z,76.13
2019-04-29T04:26:22.268Z,76.31
2019-04-29T04:31:25.703Z,76.38
2019-04-29T04:36:29.154Z,76.61
2019-04-29T04:41:32.578Z,76.67
2019-04-29T04:46:36.073Z,76.42
2019-04-29T04:51:39.447Z,76.65
2019-04-29T04:56:42.933Z,76.83
2019-04-29T05:01:46.336Z,76.77
2019-04-29T05:06:49.810Z,77.02
2019-04-29T05:11:53.162Z,77.09
2019-04-29T05:16:56.502Z,76.73
2019-04-29T05:21:59.853Z,77.06
2019-04-29T05:27:03.322Z,77.18
2019-04-29T05:32:06.725Z,77.23
2019-04-29T05:37:17.612Z,76.66
2019-04-29T05:42:20.961Z,76.87
2019-04-29T05:47:32.891Z,76.98
2019-04-29T05:52:49.720Z,76.48
2019-04-29T05:57:55.915Z,76.06
2019-04-29T06:02:56.943Z,76.22
2019-04-29T06:08:01.208Z,76.90
2019-04-29T06:13:05.535Z,76.49
2019-04-29T06:18:08.885Z,76.97
2019-04-29T06:23:12.228Z,75.59
2019-04-29T06:28:15.610Z,75.82
2019-04-29T06:33:19.031Z,74.71
2019-04-29T06:38:22.467Z,74.32
2019-04-29T06:43:28.991Z,74.67
2019-04-29T06:48:30.875Z,73.87
2019-04-29T06:53:34.249Z,73.99
2019-04-29T06:58:38.484Z,74.56
2019-04-29T07:03:41.969Z,74.11
2019-04-29T07:08:45.302Z,73.83
2019-04-29T07:13:48.650Z,73.37
2019-04-29T07:18:53.778Z,72.85
2019-04-29T07:23:57.214Z,72.83
2019-04-29T07:29:00.604Z,72.08
2019-04-29T07:34:03.976Z,71.64
2019-04-29T07:39:07.694Z,71.63
2019-04-29T07:44:13.779Z,68.23
2019-04-29T07:49:17.165Z,64.99
2019-04-29T07:54:21.215Z,65.05
2019-04-29T07:59:24.627Z,64.76
2019-04-29T08:04:28.063Z,64.04
2019-04-29T08:09:31.594Z,63.62
2019-04-29T08:14:35.198Z,64.50
2019-04-29T08:19:38.548Z,64.20
2019-04-29T08:24:46.032Z,66.05
2019-04-29T08:29:46.968Z,67.31
2019-04-29T08:34:53.618Z,66.42
2019-04-29T08:40:14.766Z,66.63
2019-04-29T08:45:04.946Z,66.20
2019-04-29T08:50:08.588Z,63.98
2019-04-29T08:55:12.940Z,62.12
2019-04-29T09:00:16.559Z,60.80
2019-04-29T09:05:19.977Z,60.74
2019-04-29T09:10:23.596Z,60.38
2019-04-29T09:15:26.948Z,60.01
2019-04-29T09:20:30.316Z,58.73
2019-04-29T09:25:41.005Z,59.18
2019-04-29T09:30:44.451Z,59.21
2019-04-29T09:35:47.852Z,57.71
2019-04-29T09:40:59.960Z,58.86
2019-04-29T09:46:09.244Z,58.02
2019-04-29T09:51:17.730Z,57.65
2019-04-29T09:56:18.085Z,57.12
2019-04-29T10:01:25.820Z,58.15
2019-04-29T10:06:33.332Z,58.32
2019-04-29T10:11:36.657Z,57.20
2019-04-29T10:16:41.753Z,57.13
2019-04-29T10:21:45.093Z,58.10
2019-04-29T10:26:48.644Z,57.85
2019-04-29T10:31:52.131Z,60.37
2019-04-29T10:36:55.899Z,58.19
2019-04-29T10:42:01.283Z,59.86
2019-04-29T10:47:11.847Z,58.70
2019-04-29T10:52:15.212Z,58.95
2019-04-29T10:57:20.976Z,58.92
2019-04-29T11:02:25.957Z,60.09
2019-04-29T11:07:31.285Z,61.18
2019-04-29T11:12:34.807Z,60.86
2019-04-29T11:17:39.842Z,61.42
2019-04-29T11:22:48.229Z,62.34
2019-04-29T11:27:55.989Z,64.58
2019-04-29T11:33:06.267Z,66.83
2019-04-29T11:38:11.369Z,67.19
2019-04-29T11:43:17.284Z,68.27
2019-04-29T11:48:20.773Z,68.70
2019-04-29T11:53:24.321Z,68.85
2019-04-29T11:58:29.331Z,68.71
2019-04-29T12:03:37.689Z,69.91
2019-04-29T12:08:41.060Z,70.57
2019-04-29T12:13:46.041Z,70.83
2019-04-29T12:18:51.111Z,71.46
2019-04-29T12:23:56.159Z,71.58
2019-04-29T12:28:59.508Z,71.54
2019-04-29T12:34:13.577Z,71.98
2019-04-29T12:39:42.366Z,72.17
2019-04-29T12:44:35.359Z,72.68
2019-04-29T12:49:36.403Z,71.26
2019-04-29T12:54:42.023Z,71.36
2019-04-29T12:59:45.190Z,71.02
2019-04-29T13:04:58.783Z,70.20
2019-04-29T13:10:21.759Z,71.32
2019-04-29T13:15:43.914Z,70.11
2019-04-29T13:20:52.176Z,70.54
2019-04-29T13:25:55.881Z,71.73
2019-04-29T13:30:59.165Z,71.73
2019-04-29T13:36:02.682Z,71.18
2019-04-29T13:41:13.301Z,72.47
2019-04-29T13:46:15.866Z,72.85
2019-04-29T13:51:39.924Z,72.37
2019-04-29T13:56:55.404Z,73.22
2019-04-29T14:02:01.312Z,74.24
2019-04-29T14:06:57.639Z,74.66
2019-04-29T14:12:15.331Z,74.74
2019-04-29T14:17:24.901Z,74.44
2019-04-29T14:22:22.127Z,74.66
2019-04-29T14:27:24.910Z,75.14
2019-04-29T14:32:34.734Z,74.77
2019-04-29T14:37:29.229Z,75.08
2019-04-29T14:42:36.840Z,75.20
2019-04-29T14:47:44.559Z,75.01
2019-04-29T14:52:49.450Z,74.27
2019-04-29T14:57:53.073Z,75.35
2019-04-29T15:03:00.598Z,74.73
2019-04-29T15:08:01.988Z,74.97
2019-04-29T15:13:20.644Z,74.72
2019-04-29T15:18:45.920Z,74.70
2019-04-29T15:23:37.565Z,75.27
2019-04-29T15:28:52.912Z,74.35
2019-04-29T15:33:56.417Z,74.44
2019-04-29T15:39:09.608Z,74.51
2019-04-29T15:44:08.561Z,74.74
2019-04-29T15:49:10.601Z,74.00
2019-04-29T15:54:14.635Z,75.27
2019-04-29T15:59:19.571Z,75.16
2019-04-29T16:04:27.846Z,74.97
2019-04-29T16:09:50.709Z,75.94
2019-04-29T16:14:39.285Z,75.47
2019-04-29T16:19:43.249Z,75.85
2019-04-29T16:24:46.882Z,76.44
2019-04-29T16:29:51.906Z,76.43
2019-04-29T16:34:55.395Z,76.16
2019-04-29T16:39:59.563Z,76.47
2019-04-29T16:45:12.006Z,76.88
2019-04-29T16:50:11.193Z,77.17
2019-04-29T16:55:14.892Z,78.07
2019-04-29T17:00:21.306Z,77.68
2019-04-29T17:05:24.997Z,78.90
2019-04-29T17:10:30.080Z,78.43
2019-04-29T17:15:33.439Z,78.77
2019-04-29T17:20:36.964Z,78.51
2019-04-29T17:25:41.589Z,78.01
2019-04-29T17:31:11.396Z,78.04
2019-04-29T17:36:08.485Z,77.89
2019-04-29T17:41:12.094Z,78.03
2019-04-29T17:46:29.393Z,78.35
2019-04-29T17:51:34.025Z,78.53
2019-04-29T17:56:50.996Z,79.08
2019-04-29T18:01:56.008Z,78.89
2019-04-29T18:07:10.264Z,79.20
2019-04-29T18:12:10.606Z,79.84
2019-04-29T18:17:24.147Z,80.00
2019-04-29T18:22:24.877Z,79.87
2019-04-29T18:27:36.838Z,80.13
2019-04-29T18:32:42.209Z,80.44
2019-04-29T18:37:45.713Z,80.24
2019-04-29T18:42:49.691Z,80.35
2019-04-29T18:47:53.141Z,80.60
2019-04-29T18:52:57.029Z,80.87
2019-04-29T18:58:00.673Z,80.61
2019-04-29T19:03:04.239Z,80.35
2019-04-29T19:08:14.461Z,80.15
2019-04-29T19:13:16.475Z,81.03
2019-04-29T19:18:21.124Z,81.33
2019-04-29T19:23:24.599Z,80.81
2019-04-29T19:28:31.094Z,81.40
2019-04-29T19:33:35.733Z,81.50
2019-04-29T19:38:43.310Z,81.38
2019-04-29T19:43:48.330Z,81.34
2019-04-29T19:48:49.335Z,81.56
2019-04-29T19:53:52.717Z,81.76
2019-04-29T19:58:58.068Z,81.61
2019-04-29T20:04:22.431Z,81.89
2019-04-29T20:09:24.606Z,81.87
2019-04-29T20:14:33.197Z,82.60
2019-04-29T20:19:38.632Z,82.39
2019-04-29T20:24:43.024Z,82.69
2019-04-29T20:29:47.936Z,82.89
2019-04-29T20:34:51.466Z,83.31
2019-04-29T20:39:57.217Z,83.49
2019-04-29T20:45:00.023Z,83.71
2019-04-29T20:50:09.026Z,83.94
2019-04-29T20:55:13.083Z,83.68
2019-04-29T21:00:20.258Z,83.07
2019-04-29T21:05:24.618Z,83.30
2019-04-29T21:10:27.846Z,83.25
2019-04-29T21:15:36.177Z,83.38
2019-04-29T21:20:39.645Z,83.58
2019-04-29T21:25:43.072Z,84.19
2019-04-29T21:30:46.475Z,84.28
2019-04-29T21:35:58.020Z,83.96
2019-04-29T21:41:06.216Z,84.11
2019-04-29T21:46:09.585Z,84.21
2019-04-29T21:51:12.940Z,84.00
2019-04-29T21:56:16.533Z,84.01
2019-04-29T22:01:20.321Z,83.83
2019-04-29T22:06:24.683Z,83.96
2019-04-29T22:11:28.857Z,83.85
2019-04-29T22:16:32.278Z,84.12
2019-04-29T22:21:36.112Z,84.20
2019-04-29T22:26:39.531Z,84.26
2019-04-29T22:31:42.959Z,84.04
2019-04-29T22:36:48.036Z,84.23
2019-04-29T22:41:56.045Z,84.29
2019-04-29T22:46:59.498Z,84.34
2019-04-29T22:52:03.050Z,84.26
2019-04-29T22:57:06.428Z,84.31
2019-04-29T23:02:09.880Z,84.34
2019-04-29T23:07:13.231Z,84.20
2019-04-29T23:12:18.601Z,84.44
2019-04-29T23:17:21.837Z,84.43
2019-04-29T23:22:35.730Z,84.40
2019-04-29T23:27:39.105Z,84.34
2019-04-29T23:32:44.260Z,84.63
2019-04-29T23:37:48.112Z,84.22
2019-04-29T23:42:51.591Z,84.54
2019-04-29T23:47:55.577Z,84.89
2019-04-29T23:52:58.973Z,84.82
2019-04-29T23:58:19.535Z,84.82
